sensor_id;sensor_type;location;lat;lon;timestamp;temperature;humidity
9907;DHT22;4992;51.628;6.664;2022-09-09T00:03:59;14.60;99.90
9907;DHT22;4992;51.628;6.664;2022-09-09T00:06:42;14.60;99.90
9907;DHT22;4992;51.628;6.664;2022-09-09T00:09:19;14.50;99.90
9907;DHT22;4992;51.628;6.664;2022-09-09T00:11:52;14.40;99.90
9907;DHT22;4992;51.628;6.664;2022-09-09T00:17:06;14.40;99.90
9907;DHT22;4992;51.628;6.664;2022-09-09T00:19:48;14.40;99.90
9907;DHT22;4992;51.628;6.664;2022-09-09T00:22:23;14.40;99.90
9907;DHT22;4992;51.628;6.664;2022-09-09T00:24:53;14.40;99.90
9907;DHT22;4992;51.628;6.664;2022-09-09T00:27:33;14.40;99.90
9907;DHT22;4992;51.628;6.664;2022-09-09T00:32:38;14.30;99.90
9907;DHT22;4992;51.628;6.664;2022-09-09T00:35:37;14.30;99.90
9907;DHT22;4992;51.628;6.664;2022-09-09T00:38:26;14.30;99.90
9907;DHT22;4992;51.628;6.664;2022-09-09T00:41:03;14.20;99.90
9907;DHT22;4992;51.628;6.664;2022-09-09T00:43:36;14.20;99.90
9907;DHT22;4992;51.628;6.664;2022-09-09T00:46:41;14.20;99.90
9907;DHT22;4992;51.628;6.664;2022-09-09T00:52:06;14.20;99.90
9907;DHT22;4992;51.628;6.664;2022-09-09T00:57:27;14.20;99.90
9907;DHT22;4992;51.628;6.664;2022-09-09T01:02:44;14.20;99.90
9907;DHT22;4992;51.628;6.664;2022-09-09T01:05:36;14.20;99.90
9907;DHT22;4992;51.628;6.664;2022-09-09T01:08:24;14.20;99.90
9907;DHT22;4992;51.628;6.664;2022-09-09T01:10:54;14.20;99.90
9907;DHT22;4992;51.628;6.664;2022-09-09T01:13:29;14.10;99.90
9907;DHT22;4992;51.628;6.664;2022-09-09T01:15:57;14.10;99.90
9907;DHT22;4992;51.628;6.664;2022-09-09T01:18:27;14.10;99.90
9907;DHT22;4992;51.628;6.664;2022-09-09T01:26:49;14.00;99.90
9907;DHT22;4992;51.628;6.664;2022-09-09T01:29:19;14.00;99.90
9907;DHT22;4992;51.628;6.664;2022-09-09T01:31:55;14.00;99.90
9907;DHT22;4992;51.628;6.664;2022-09-09T01:34:23;14.00;99.90
9907;DHT22;4992;51.628;6.664;2022-09-09T01:37:06;14.00;99.90
9907;DHT22;4992;51.628;6.664;2022-09-09T01:39:34;13.90;99.90
9907;DHT22;4992;51.628;6.664;2022-09-09T01:42:00;13.90;99.90
9907;DHT22;4992;51.628;6.664;2022-09-09T01:44:27;13.90;99.90
9907;DHT22;4992;51.628;6.664;2022-09-09T01:46:53;13.80;99.90
9907;DHT22;4992;51.628;6.664;2022-09-09T01:49:19;13.80;99.90
9907;DHT22;4992;51.628;6.664;2022-09-09T01:51:48;13.80;99.90
9907;DHT22;4992;51.628;6.664;2022-09-09T01:54:14;13.80;99.90
9907;DHT22;4992;51.628;6.664;2022-09-09T01:59:28;13.80;99.90
9907;DHT22;4992;51.628;6.664;2022-09-09T02:04:45;13.70;99.90
9907;DHT22;4992;51.628;6.664;2022-09-09T02:10:01;13.70;99.90
9907;DHT22;4992;51.628;6.664;2022-09-09T02:12:29;13.70;99.90
9907;DHT22;4992;51.628;6.664;2022-09-09T02:15:00;13.70;99.90
9907;DHT22;4992;51.628;6.664;2022-09-09T02:17:31;13.70;99.90
9907;DHT22;4992;51.628;6.664;2022-09-09T02:20:07;13.70;99.90
9907;DHT22;4992;51.628;6.664;2022-09-09T02:22:35;13.70;99.90
9907;DHT22;4992;51.628;6.664;2022-09-09T02:25:02;13.70;99.90
9907;DHT22;4992;51.628;6.664;2022-09-09T02:27:30;13.70;99.90
9907;DHT22;4992;51.628;6.664;2022-09-09T02:29:57;13.70;99.90
9907;DHT22;4992;51.628;6.664;2022-09-09T02:32:23;13.70;99.90
9907;DHT22;4992;51.628;6.664;2022-09-09T02:34:58;13.70;99.90
9907;DHT22;4992;51.628;6.664;2022-09-09T02:37:31;13.70;99.90
9907;DHT22;4992;51.628;6.664;2022-09-09T02:40:02;13.70;99.90
9907;DHT22;4992;51.628;6.664;2022-09-09T02:42:27;13.70;99.90
9907;DHT22;4992;51.628;6.664;2022-09-09T02:44:53;13.70;99.90
9907;DHT22;4992;51.628;6.664;2022-09-09T02:50:20;13.70;99.90
9907;DHT22;4992;51.628;6.664;2022-09-09T02:55:41;13.70;99.90
9907;DHT22;4992;51.628;6.664;2022-09-09T02:58:13;13.70;99.90
9907;DHT22;4992;51.628;6.664;2022-09-09T03:00:43;13.70;99.90
9907;DHT22;4992;51.628;6.664;2022-09-09T03:03:09;13.70;99.90
9907;DHT22;4992;51.628;6.664;2022-09-09T03:05:35;13.70;99.90
9907;DHT22;4992;51.628;6.664;2022-09-09T03:08:01;13.70;99.90
9907;DHT22;4992;51.628;6.664;2022-09-09T03:10:27;13.70;99.90
9907;DHT22;4992;51.628;6.664;2022-09-09T03:12:53;13.70;99.90
9907;DHT22;4992;51.628;6.664;2022-09-09T03:15:18;13.70;99.90
9907;DHT22;4992;51.628;6.664;2022-09-09T03:17:44;13.70;99.90
9907;DHT22;4992;51.628;6.664;2022-09-09T03:20:10;13.70;99.90
9907;DHT22;4992;51.628;6.664;2022-09-09T03:22:35;13.60;99.90
9907;DHT22;4992;51.628;6.664;2022-09-09T03:25:01;13.70;99.90
9907;DHT22;4992;51.628;6.664;2022-09-09T03:27:28;13.60;99.90
9907;DHT22;4992;51.628;6.664;2022-09-09T03:29:54;13.70;99.90
9907;DHT22;4992;51.628;6.664;2022-09-09T03:32:19;13.70;99.90
9907;DHT22;4992;51.628;6.664;2022-09-09T03:34:48;13.70;99.90
9907;DHT22;4992;51.628;6.664;2022-09-09T03:37:15;13.80;99.90
9907;DHT22;4992;51.628;6.664;2022-09-09T03:39:43;13.80;99.90
9907;DHT22;4992;51.628;6.664;2022-09-09T03:42:08;13.80;99.90
9907;DHT22;4992;51.628;6.664;2022-09-09T03:44:33;13.80;99.90
9907;DHT22;4992;51.628;6.664;2022-09-09T03:46:59;13.80;99.90
9907;DHT22;4992;51.628;6.664;2022-09-09T03:49:26;13.90;99.90
9907;DHT22;4992;51.628;6.664;2022-09-09T03:51:54;13.90;99.90
9907;DHT22;4992;51.628;6.664;2022-09-09T03:54:20;13.90;99.90
9907;DHT22;4992;51.628;6.664;2022-09-09T03:56:45;13.90;99.90
9907;DHT22;4992;51.628;6.664;2022-09-09T03:59:11;13.90;99.90
9907;DHT22;4992;51.628;6.664;2022-09-09T04:01:36;13.90;99.90
9907;DHT22;4992;51.628;6.664;2022-09-09T04:04:02;13.90;99.90
9907;DHT22;4992;51.628;6.664;2022-09-09T04:06:28;13.90;99.90
9907;DHT22;4992;51.628;6.664;2022-09-09T04:08:55;14.00;99.90
9907;DHT22;4992;51.628;6.664;2022-09-09T04:11:21;14.00;99.90
9907;DHT22;4992;51.628;6.664;2022-09-09T04:13:46;14.10;99.90
9907;DHT22;4992;51.628;6.664;2022-09-09T04:16:12;14.10;99.90
9907;DHT22;4992;51.628;6.664;2022-09-09T04:18:42;14.10;99.90
9907;DHT22;4992;51.628;6.664;2022-09-09T04:21:09;14.20;99.90
9907;DHT22;4992;51.628;6.664;2022-09-09T04:23:35;14.20;99.90
9907;DHT22;4992;51.628;6.664;2022-09-09T04:26:02;14.20;99.90
9907;DHT22;4992;51.628;6.664;2022-09-09T04:28:33;14.20;99.90
9907;DHT22;4992;51.628;6.664;2022-09-09T04:31:19;14.20;99.90
9907;DHT22;4992;51.628;6.664;2022-09-09T04:33:45;14.30;99.90
9907;DHT22;4992;51.628;6.664;2022-09-09T04:36:12;14.30;99.90
9907;DHT22;4992;51.628;6.664;2022-09-09T04:38:38;14.30;99.90
9907;DHT22;4992;51.628;6.664;2022-09-09T04:41:04;14.30;99.90
9907;DHT22;4992;51.628;6.664;2022-09-09T04:43:29;14.40;99.90
9907;DHT22;4992;51.628;6.664;2022-09-09T04:45:56;14.40;99.90
9907;DHT22;4992;51.628;6.664;2022-09-09T04:48:22;14.40;99.90
9907;DHT22;4992;51.628;6.664;2022-09-09T04:51:03;14.40;99.90
9907;DHT22;4992;51.628;6.664;2022-09-09T04:53:30;14.40;99.90
9907;DHT22;4992;51.628;6.664;2022-09-09T04:56:06;14.40;99.90
9907;DHT22;4992;51.628;6.664;2022-09-09T04:58:32;14.50;99.90
9907;DHT22;4992;51.628;6.664;2022-09-09T05:01:09;14.50;99.90
9907;DHT22;4992;51.628;6.664;2022-09-09T05:03:35;14.50;99.90
9907;DHT22;4992;51.628;6.664;2022-09-09T05:06:05;14.50;99.90
9907;DHT22;4992;51.628;6.664;2022-09-09T05:08:31;14.60;99.90
9907;DHT22;4992;51.628;6.664;2022-09-09T05:10:57;14.60;99.90
9907;DHT22;4992;51.628;6.664;2022-09-09T05:13:25;14.60;99.90
9907;DHT22;4992;51.628;6.664;2022-09-09T05:15:54;14.60;99.90
9907;DHT22;4992;51.628;6.664;2022-09-09T05:18:20;14.60;99.90
9907;DHT22;4992;51.628;6.664;2022-09-09T05:20:48;14.70;99.90
9907;DHT22;4992;51.628;6.664;2022-09-09T05:23:13;14.70;99.90
9907;DHT22;4992;51.628;6.664;2022-09-09T05:25:39;14.70;99.90
9907;DHT22;4992;51.628;6.664;2022-09-09T05:28:06;14.70;99.90
9907;DHT22;4992;51.628;6.664;2022-09-09T05:30:33;14.80;99.90
9907;DHT22;4992;51.628;6.664;2022-09-09T05:32:59;14.80;99.90
9907;DHT22;4992;51.628;6.664;2022-09-09T05:35:25;14.70;99.90
9907;DHT22;4992;51.628;6.664;2022-09-09T05:37:50;14.70;99.90
9907;DHT22;4992;51.628;6.664;2022-09-09T05:40:16;14.80;99.90
9907;DHT22;4992;51.628;6.664;2022-09-09T05:42:42;14.80;99.90
9907;DHT22;4992;51.628;6.664;2022-09-09T05:45:08;14.80;99.90
9907;DHT22;4992;51.628;6.664;2022-09-09T05:47:34;14.80;99.90
9907;DHT22;4992;51.628;6.664;2022-09-09T05:50:01;14.80;99.90
9907;DHT22;4992;51.628;6.664;2022-09-09T05:52:26;14.90;99.90
9907;DHT22;4992;51.628;6.664;2022-09-09T05:54:52;14.90;99.90
9907;DHT22;4992;51.628;6.664;2022-09-09T05:57:18;14.90;99.90
9907;DHT22;4992;51.628;6.664;2022-09-09T05:59:44;14.90;99.90
9907;DHT22;4992;51.628;6.664;2022-09-09T06:02:10;15.00;99.90
9907;DHT22;4992;51.628;6.664;2022-09-09T06:04:35;15.00;99.90
9907;DHT22;4992;51.628;6.664;2022-09-09T06:07:01;15.10;99.90
9907;DHT22;4992;51.628;6.664;2022-09-09T06:09:26;15.20;99.90
9907;DHT22;4992;51.628;6.664;2022-09-09T06:11:52;15.20;99.90
9907;DHT22;4992;51.628;6.664;2022-09-09T06:14:19;15.30;99.90
9907;DHT22;4992;51.628;6.664;2022-09-09T06:16:45;15.30;99.90
9907;DHT22;4992;51.628;6.664;2022-09-09T06:19:11;15.30;99.90
9907;DHT22;4992;51.628;6.664;2022-09-09T06:21:38;15.40;99.90
9907;DHT22;4992;51.628;6.664;2022-09-09T06:24:04;15.50;99.90
9907;DHT22;4992;51.628;6.664;2022-09-09T06:26:32;15.50;99.90
9907;DHT22;4992;51.628;6.664;2022-09-09T06:29:00;15.60;99.90
9907;DHT22;4992;51.628;6.664;2022-09-09T06:31:29;15.70;99.90
9907;DHT22;4992;51.628;6.664;2022-09-09T06:33:59;15.70;99.90
9907;DHT22;4992;51.628;6.664;2022-09-09T06:36:30;15.80;99.90
9907;DHT22;4992;51.628;6.664;2022-09-09T06:38:56;15.80;99.90
9907;DHT22;4992;51.628;6.664;2022-09-09T06:41:24;15.90;99.90
9907;DHT22;4992;51.628;6.664;2022-09-09T06:43:51;16.00;99.90
9907;DHT22;4992;51.628;6.664;2022-09-09T06:46:25;16.00;99.90
9907;DHT22;4992;51.628;6.664;2022-09-09T06:48:53;16.10;99.90
9907;DHT22;4992;51.628;6.664;2022-09-09T06:51:22;16.10;99.90
9907;DHT22;4992;51.628;6.664;2022-09-09T06:53:51;16.10;99.90
9907;DHT22;4992;51.628;6.664;2022-09-09T06:56:20;16.10;99.90
9907;DHT22;4992;51.628;6.664;2022-09-09T06:58:48;16.10;99.90
9907;DHT22;4992;51.628;6.664;2022-09-09T07:01:27;16.10;99.90
9907;DHT22;4992;51.628;6.664;2022-09-09T07:03:55;16.10;99.90
9907;DHT22;4992;51.628;6.664;2022-09-09T07:06:29;16.30;99.90
9907;DHT22;4992;51.628;6.664;2022-09-09T07:08:58;16.30;99.90
9907;DHT22;4992;51.628;6.664;2022-09-09T07:11:26;16.30;99.90
9907;DHT22;4992;51.628;6.664;2022-09-09T07:13:52;16.30;99.90
9907;DHT22;4992;51.628;6.664;2022-09-09T07:16:20;16.40;99.90
9907;DHT22;4992;51.628;6.664;2022-09-09T07:18:46;16.40;99.90
9907;DHT22;4992;51.628;6.664;2022-09-09T07:21:13;16.40;99.90
9907;DHT22;4992;51.628;6.664;2022-09-09T07:23:40;16.40;99.90
9907;DHT22;4992;51.628;6.664;2022-09-09T07:26:21;16.50;99.90
9907;DHT22;4992;51.628;6.664;2022-09-09T07:28:47;16.50;99.90
9907;DHT22;4992;51.628;6.664;2022-09-09T07:31:18;16.50;99.90
9907;DHT22;4992;51.628;6.664;2022-09-09T07:33:45;16.60;99.90
9907;DHT22;4992;51.628;6.664;2022-09-09T07:38:44;16.80;99.90
9907;DHT22;4992;51.628;6.664;2022-09-09T07:41:13;17.00;99.90
9907;DHT22;4992;51.628;6.664;2022-09-09T07:43:40;17.00;99.90
9907;DHT22;4992;51.628;6.664;2022-09-09T07:46:07;17.10;99.90
9907;DHT22;4992;51.628;6.664;2022-09-09T07:48:33;17.10;99.90
9907;DHT22;4992;51.628;6.664;2022-09-09T07:51:07;17.20;99.90
9907;DHT22;4992;51.628;6.664;2022-09-09T07:53:34;17.20;99.90
9907;DHT22;4992;51.628;6.664;2022-09-09T07:56:06;17.30;99.90
9907;DHT22;4992;51.628;6.664;2022-09-09T07:58:32;17.40;99.90
9907;DHT22;4992;51.628;6.664;2022-09-09T08:00:58;17.40;99.90
9907;DHT22;4992;51.628;6.664;2022-09-09T08:03:23;17.50;99.90
9907;DHT22;4992;51.628;6.664;2022-09-09T08:05:49;17.60;99.90
9907;DHT22;4992;51.628;6.664;2022-09-09T08:08:15;17.60;99.90
9907;DHT22;4992;51.628;6.664;2022-09-09T08:10:42;17.60;99.90
9907;DHT22;4992;51.628;6.664;2022-09-09T08:13:09;17.70;99.90
9907;DHT22;4992;51.628;6.664;2022-09-09T08:15:34;17.80;99.90
9907;DHT22;4992;51.628;6.664;2022-09-09T08:18:00;17.90;99.90
9907;DHT22;4992;51.628;6.664;2022-09-09T08:20:25;18.00;99.90
9907;DHT22;4992;51.628;6.664;2022-09-09T08:22:51;18.10;99.90
9907;DHT22;4992;51.628;6.664;2022-09-09T08:25:16;18.30;99.90
9907;DHT22;4992;51.628;6.664;2022-09-09T08:27:42;18.40;99.90
9907;DHT22;4992;51.628;6.664;2022-09-09T08:30:08;18.40;99.90
9907;DHT22;4992;51.628;6.664;2022-09-09T08:32:34;18.50;99.90
9907;DHT22;4992;51.628;6.664;2022-09-09T08:35:00;18.60;99.90
9907;DHT22;4992;51.628;6.664;2022-09-09T08:37:26;18.70;99.90
9907;DHT22;4992;51.628;6.664;2022-09-09T08:39:51;18.70;99.90
9907;DHT22;4992;51.628;6.664;2022-09-09T08:42:25;18.70;99.90
9907;DHT22;4992;51.628;6.664;2022-09-09T08:45:09;18.80;99.90
9907;DHT22;4992;51.628;6.664;2022-09-09T08:47:58;18.90;99.90
9907;DHT22;4992;51.628;6.664;2022-09-09T08:50:36;19.20;99.90
9907;DHT22;4992;51.628;6.664;2022-09-09T08:53:28;19.30;99.90
9907;DHT22;4992;51.628;6.664;2022-09-09T08:56:01;19.30;99.90
9907;DHT22;4992;51.628;6.664;2022-09-09T08:58:28;19.30;99.90
9907;DHT22;4992;51.628;6.664;2022-09-09T09:03:32;19.10;99.90
9907;DHT22;4992;51.628;6.664;2022-09-09T09:06:24;19.00;99.90
9907;DHT22;4992;51.628;6.664;2022-09-09T09:08:56;19.00;99.90
9907;DHT22;4992;51.628;6.664;2022-09-09T09:11:25;19.00;99.90
9907;DHT22;4992;51.628;6.664;2022-09-09T09:13:57;18.90;99.90
9907;DHT22;4992;51.628;6.664;2022-09-09T09:16:35;18.90;99.90
9907;DHT22;4992;51.628;6.664;2022-09-09T09:19:04;18.80;99.90
9907;DHT22;4992;51.628;6.664;2022-09-09T09:24:00;18.70;99.90
9907;DHT22;4992;51.628;6.664;2022-09-09T09:26:31;18.70;99.90
9907;DHT22;4992;51.628;6.664;2022-09-09T09:28:58;18.70;99.90
9907;DHT22;4992;51.628;6.664;2022-09-09T09:31:24;18.60;99.90
9907;DHT22;4992;51.628;6.664;2022-09-09T09:33:55;18.60;99.90
9907;DHT22;4992;51.628;6.664;2022-09-09T09:36:34;18.70;99.90
9907;DHT22;4992;51.628;6.664;2022-09-09T09:39:02;18.70;99.90
9907;DHT22;4992;51.628;6.664;2022-09-09T09:41:42;18.70;99.90
9907;DHT22;4992;51.628;6.664;2022-09-09T09:44:28;18.70;99.90
9907;DHT22;4992;51.628;6.664;2022-09-09T09:47:07;18.70;99.90
9907;DHT22;4992;51.628;6.664;2022-09-09T09:49:33;18.70;99.90
9907;DHT22;4992;51.628;6.664;2022-09-09T09:52:03;18.60;99.90
9907;DHT22;4992;51.628;6.664;2022-09-09T09:54:34;18.50;99.90
9907;DHT22;4992;51.628;6.664;2022-09-09T09:57:13;18.50;99.90
9907;DHT22;4992;51.628;6.664;2022-09-09T09:59:40;18.60;99.90
9907;DHT22;4992;51.628;6.664;2022-09-09T10:02:17;18.70;99.90
9907;DHT22;4992;51.628;6.664;2022-09-09T10:04:43;18.90;99.90
9907;DHT22;4992;51.628;6.664;2022-09-09T10:07:18;19.20;99.90
9907;DHT22;4992;51.628;6.664;2022-09-09T10:09:44;19.40;99.90
9907;DHT22;4992;51.628;6.664;2022-09-09T10:12:39;19.60;99.90
9907;DHT22;4992;51.628;6.664;2022-09-09T10:20:32;20.30;99.90
9907;DHT22;4992;51.628;6.664;2022-09-09T10:31:31;20.20;99.90
9907;DHT22;4992;51.628;6.664;2022-09-09T10:34:45;20.20;99.90
9907;DHT22;4992;51.628;6.664;2022-09-09T10:40:15;20.00;99.90
9907;DHT22;4992;51.628;6.664;2022-09-09T10:42:45;19.90;99.90
9907;DHT22;4992;51.628;6.664;2022-09-09T10:45:18;19.80;99.90
9907;DHT22;4992;51.628;6.664;2022-09-09T10:50:40;19.60;99.90
9907;DHT22;4992;51.628;6.664;2022-09-09T10:53:18;19.40;99.90
9907;DHT22;4992;51.628;6.664;2022-09-09T10:55:51;19.30;99.90
9907;DHT22;4992;51.628;6.664;2022-09-09T10:58:29;19.20;99.90
9907;DHT22;4992;51.628;6.664;2022-09-09T11:01:01;19.20;99.90
9907;DHT22;4992;51.628;6.664;2022-09-09T11:03:33;19.10;99.90
9907;DHT22;4992;51.628;6.664;2022-09-09T11:06:15;19.10;99.90
9907;DHT22;4992;51.628;6.664;2022-09-09T11:08:42;19.10;99.90
9907;DHT22;4992;51.628;6.664;2022-09-09T11:11:19;19.20;99.90
9907;DHT22;4992;51.628;6.664;2022-09-09T11:13:57;19.30;99.90
9907;DHT22;4992;51.628;6.664;2022-09-09T11:19:40;19.50;99.90
9907;DHT22;4992;51.628;6.664;2022-09-09T11:25:03;19.70;99.90
9907;DHT22;4992;51.628;6.664;2022-09-09T11:30:20;19.70;99.90
9907;DHT22;4992;51.628;6.664;2022-09-09T11:35:35;19.60;99.90
9907;DHT22;4992;51.628;6.664;2022-09-09T11:41:11;19.50;99.90
9907;DHT22;4992;51.628;6.664;2022-09-09T11:43:45;19.50;99.90
9907;DHT22;4992;51.628;6.664;2022-09-09T11:46:14;19.70;99.90
9907;DHT22;4992;51.628;6.664;2022-09-09T11:48:41;19.80;99.90
9907;DHT22;4992;51.628;6.664;2022-09-09T11:53:53;20.00;99.90
9907;DHT22;4992;51.628;6.664;2022-09-09T11:56:25;20.00;99.90
9907;DHT22;4992;51.628;6.664;2022-09-09T11:59:04;20.00;99.90
9907;DHT22;4992;51.628;6.664;2022-09-09T12:01:43;20.00;99.90
9907;DHT22;4992;51.628;6.664;2022-09-09T12:06:54;20.00;99.90
9907;DHT22;4992;51.628;6.664;2022-09-09T12:09:48;20.10;99.90
9907;DHT22;4992;51.628;6.664;2022-09-09T12:19:38;20.50;99.90
9907;DHT22;4992;51.628;6.664;2022-09-09T12:22:11;20.50;99.90
9907;DHT22;4992;51.628;6.664;2022-09-09T12:24:49;20.40;99.90
9907;DHT22;4992;51.628;6.664;2022-09-09T12:27:25;20.30;99.90
9907;DHT22;4992;51.628;6.664;2022-09-09T12:29:57;20.20;99.90
9907;DHT22;4992;51.628;6.664;2022-09-09T12:32:27;20.10;99.90
9907;DHT22;4992;51.628;6.664;2022-09-09T12:35:10;20.00;99.90
9907;DHT22;4992;51.628;6.664;2022-09-09T12:40:29;19.80;99.90
9907;DHT22;4992;51.628;6.664;2022-09-09T12:42:55;19.50;99.90
9907;DHT22;4992;51.628;6.664;2022-09-09T12:45:23;19.00;99.90
9907;DHT22;4992;51.628;6.664;2022-09-09T12:48:05;18.30;99.90
9907;DHT22;4992;51.628;6.664;2022-09-09T12:50:37;17.70;99.90
9907;DHT22;4992;51.628;6.664;2022-09-09T12:53:29;17.30;99.90
9907;DHT22;4992;51.628;6.664;2022-09-09T12:56:00;17.00;99.90
9907;DHT22;4992;51.628;6.664;2022-09-09T12:58:28;16.90;99.90
9907;DHT22;4992;51.628;6.664;2022-09-09T13:00:58;16.90;99.90
9907;DHT22;4992;51.628;6.664;2022-09-09T13:03:25;16.90;99.90
9907;DHT22;4992;51.628;6.664;2022-09-09T13:05:51;16.90;99.90
9907;DHT22;4992;51.628;6.664;2022-09-09T13:08:18;17.10;99.90
9907;DHT22;4992;51.628;6.664;2022-09-09T13:13:23;17.90;99.90
9907;DHT22;4992;51.628;6.664;2022-09-09T13:15:59;18.40;99.90
9907;DHT22;4992;51.628;6.664;2022-09-09T13:18:33;19.50;99.90
9907;DHT22;4992;51.628;6.664;2022-09-09T13:20:59;20.70;99.90
9907;DHT22;4992;51.628;6.664;2022-09-09T13:23:31;21.50;99.90
9907;DHT22;4992;51.628;6.664;2022-09-09T13:26:21;22.00;99.90
9907;DHT22;4992;51.628;6.664;2022-09-09T13:28:48;21.90;99.90
9907;DHT22;4992;51.628;6.664;2022-09-09T13:31:43;21.60;99.90
9907;DHT22;4992;51.628;6.664;2022-09-09T13:34:27;22.10;99.90
9907;DHT22;4992;51.628;6.664;2022-09-09T13:37:05;22.50;99.90
9907;DHT22;4992;51.628;6.664;2022-09-09T13:39:33;22.60;99.90
9907;DHT22;4992;51.628;6.664;2022-09-09T13:42:00;22.30;99.90
9907;DHT22;4992;51.628;6.664;2022-09-09T13:44:31;21.70;99.90
9907;DHT22;4992;51.628;6.664;2022-09-09T13:49:29;20.50;99.90
9907;DHT22;4992;51.628;6.664;2022-09-09T13:52:08;20.30;99.90
9907;DHT22;4992;51.628;6.664;2022-09-09T13:54:34;20.00;99.90
9907;DHT22;4992;51.628;6.664;2022-09-09T13:57:00;19.90;99.90
9907;DHT22;4992;51.628;6.664;2022-09-09T13:59:27;19.80;99.90
9907;DHT22;4992;51.628;6.664;2022-09-09T14:01:52;19.90;99.90
9907;DHT22;4992;51.628;6.664;2022-09-09T14:04:18;19.90;99.90
9907;DHT22;4992;51.628;6.664;2022-09-09T14:06:46;20.00;99.90
9907;DHT22;4992;51.628;6.664;2022-09-09T14:09:14;20.10;99.90
9907;DHT22;4992;51.628;6.664;2022-09-09T14:11:40;20.00;99.90
9907;DHT22;4992;51.628;6.664;2022-09-09T14:14:06;19.90;99.90
9907;DHT22;4992;51.628;6.664;2022-09-09T14:16:32;19.70;99.90
9907;DHT22;4992;51.628;6.664;2022-09-09T14:18:58;19.70;99.90
9907;DHT22;4992;51.628;6.664;2022-09-09T14:21:25;19.60;99.90
9907;DHT22;4992;51.628;6.664;2022-09-09T14:23:51;19.60;99.90
9907;DHT22;4992;51.628;6.664;2022-09-09T14:26:18;19.50;99.90
9907;DHT22;4992;51.628;6.664;2022-09-09T14:28:44;19.50;99.90
9907;DHT22;4992;51.628;6.664;2022-09-09T14:31:11;19.40;99.90
9907;DHT22;4992;51.628;6.664;2022-09-09T14:33:38;19.30;99.90
9907;DHT22;4992;51.628;6.664;2022-09-09T14:36:04;19.20;99.90
9907;DHT22;4992;51.628;6.664;2022-09-09T14:38:32;19.10;99.90
9907;DHT22;4992;51.628;6.664;2022-09-09T14:41:02;18.90;99.90
9907;DHT22;4992;51.628;6.664;2022-09-09T14:43:28;18.80;99.90
9907;DHT22;4992;51.628;6.664;2022-09-09T14:45:55;18.50;99.90
9907;DHT22;4992;51.628;6.664;2022-09-09T14:48:21;18.30;99.90
9907;DHT22;4992;51.628;6.664;2022-09-09T14:50:47;18.10;99.90
9907;DHT22;4992;51.628;6.664;2022-09-09T14:53:12;17.90;99.90
9907;DHT22;4992;51.628;6.664;2022-09-09T14:55:38;17.70;99.90
9907;DHT22;4992;51.628;6.664;2022-09-09T14:58:04;17.50;99.90
9907;DHT22;4992;51.628;6.664;2022-09-09T15:00:30;17.40;99.90
9907;DHT22;4992;51.628;6.664;2022-09-09T15:02:56;17.30;99.90
9907;DHT22;4992;51.628;6.664;2022-09-09T15:05:22;17.20;99.90
9907;DHT22;4992;51.628;6.664;2022-09-09T15:07:49;17.10;99.90
9907;DHT22;4992;51.628;6.664;2022-09-09T15:10:15;16.90;99.90
9907;DHT22;4992;51.628;6.664;2022-09-09T15:12:42;16.80;99.90
9907;DHT22;4992;51.628;6.664;2022-09-09T15:15:08;16.70;99.90
9907;DHT22;4992;51.628;6.664;2022-09-09T15:17:34;16.60;99.90
9907;DHT22;4992;51.628;6.664;2022-09-09T15:20:02;16.50;99.90
9907;DHT22;4992;51.628;6.664;2022-09-09T15:22:28;16.50;99.90
9907;DHT22;4992;51.628;6.664;2022-09-09T15:24:53;16.50;99.90
9907;DHT22;4992;51.628;6.664;2022-09-09T15:27:19;16.60;99.90
9907;DHT22;4992;51.628;6.664;2022-09-09T15:29:44;16.70;99.90
9907;DHT22;4992;51.628;6.664;2022-09-09T15:32:10;16.80;99.90
9907;DHT22;4992;51.628;6.664;2022-09-09T15:34:36;17.00;99.90
9907;DHT22;4992;51.628;6.664;2022-09-09T15:37:01;17.10;99.90
9907;DHT22;4992;51.628;6.664;2022-09-09T15:39:28;17.20;99.90
9907;DHT22;4992;51.628;6.664;2022-09-09T15:41:53;17.30;99.90
9907;DHT22;4992;51.628;6.664;2022-09-09T15:44:19;17.40;99.90
9907;DHT22;4992;51.628;6.664;2022-09-09T15:46:49;17.50;99.90
9907;DHT22;4992;51.628;6.664;2022-09-09T15:49:16;17.60;99.90
9907;DHT22;4992;51.628;6.664;2022-09-09T15:51:45;17.70;99.90
9907;DHT22;4992;51.628;6.664;2022-09-09T15:54:13;17.70;99.90
9907;DHT22;4992;51.628;6.664;2022-09-09T15:56:40;17.80;99.90
9907;DHT22;4992;51.628;6.664;2022-09-09T15:59:06;17.80;99.90
9907;DHT22;4992;51.628;6.664;2022-09-09T16:01:32;17.80;99.90
9907;DHT22;4992;51.628;6.664;2022-09-09T16:03:59;17.70;99.90
9907;DHT22;4992;51.628;6.664;2022-09-09T16:06:27;17.70;99.90
9907;DHT22;4992;51.628;6.664;2022-09-09T16:08:54;17.70;99.90
9907;DHT22;4992;51.628;6.664;2022-09-09T16:11:23;17.60;99.90
9907;DHT22;4992;51.628;6.664;2022-09-09T16:13:49;17.60;99.90
9907;DHT22;4992;51.628;6.664;2022-09-09T16:16:17;17.60;99.90
9907;DHT22;4992;51.628;6.664;2022-09-09T16:18:46;17.50;99.90
9907;DHT22;4992;51.628;6.664;2022-09-09T16:21:21;17.50;99.90
9907;DHT22;4992;51.628;6.664;2022-09-09T16:23:50;17.50;99.90
9907;DHT22;4992;51.628;6.664;2022-09-09T16:26:17;17.40;99.90
9907;DHT22;4992;51.628;6.664;2022-09-09T16:28:43;17.40;99.90
9907;DHT22;4992;51.628;6.664;2022-09-09T16:31:11;17.40;99.90
9907;DHT22;4992;51.628;6.664;2022-09-09T16:33:39;17.30;99.90
9907;DHT22;4992;51.628;6.664;2022-09-09T16:36:09;17.30;99.90
9907;DHT22;4992;51.628;6.664;2022-09-09T16:38:35;17.20;99.90
9907;DHT22;4992;51.628;6.664;2022-09-09T16:41:02;17.20;99.90
9907;DHT22;4992;51.628;6.664;2022-09-09T16:43:30;17.20;99.90
9907;DHT22;4992;51.628;6.664;2022-09-09T16:45:55;17.20;99.90
9907;DHT22;4992;51.628;6.664;2022-09-09T16:48:21;17.20;99.90
9907;DHT22;4992;51.628;6.664;2022-09-09T16:50:47;17.20;99.90
9907;DHT22;4992;51.628;6.664;2022-09-09T16:53:13;17.20;99.90
9907;DHT22;4992;51.628;6.664;2022-09-09T16:55:39;17.20;99.90
9907;DHT22;4992;51.628;6.664;2022-09-09T16:58:06;17.20;99.90
9907;DHT22;4992;51.628;6.664;2022-09-09T17:00:32;17.20;99.90
9907;DHT22;4992;51.628;6.664;2022-09-09T17:02:57;17.20;99.90
9907;DHT22;4992;51.628;6.664;2022-09-09T17:05:24;17.20;99.90
9907;DHT22;4992;51.628;6.664;2022-09-09T17:07:50;17.20;99.90
9907;DHT22;4992;51.628;6.664;2022-09-09T17:10:16;17.10;99.90
9907;DHT22;4992;51.628;6.664;2022-09-09T17:12:42;17.10;99.90
9907;DHT22;4992;51.628;6.664;2022-09-09T17:15:07;17.10;99.90
9907;DHT22;4992;51.628;6.664;2022-09-09T17:17:34;17.00;99.90
9907;DHT22;4992;51.628;6.664;2022-09-09T17:20:00;17.00;99.90
9907;DHT22;4992;51.628;6.664;2022-09-09T17:22:27;17.00;99.90
9907;DHT22;4992;51.628;6.664;2022-09-09T17:24:54;16.90;99.90
9907;DHT22;4992;51.628;6.664;2022-09-09T17:27:20;16.90;99.90
9907;DHT22;4992;51.628;6.664;2022-09-09T17:29:45;16.90;99.90
9907;DHT22;4992;51.628;6.664;2022-09-09T17:32:12;16.80;99.90
9907;DHT22;4992;51.628;6.664;2022-09-09T17:34:37;16.80;99.90
9907;DHT22;4992;51.628;6.664;2022-09-09T17:37:03;16.90;99.90
9907;DHT22;4992;51.628;6.664;2022-09-09T17:39:30;16.80;99.90
9907;DHT22;4992;51.628;6.664;2022-09-09T17:41:56;16.80;99.90
9907;DHT22;4992;51.628;6.664;2022-09-09T17:44:21;16.80;99.90
9907;DHT22;4992;51.628;6.664;2022-09-09T17:46:47;16.80;99.90
9907;DHT22;4992;51.628;6.664;2022-09-09T17:49:14;16.80;99.90
9907;DHT22;4992;51.628;6.664;2022-09-09T17:51:42;16.80;99.90
9907;DHT22;4992;51.628;6.664;2022-09-09T17:54:16;16.70;99.90
9907;DHT22;4992;51.628;6.664;2022-09-09T17:56:42;16.70;99.90